Time;durP1;ratioP1;P1;durP2;ratioP2;P2;SDS_P1;SDS_P2;PMS_P1;PMS_P2;Temp;Humidity;BMP_temperature;BMP_pressure;BME280_temperature;BME280_humidity;BME280_pressure;Samples;Min_cycle;Max_cycle;Signal;HPM_P1;HPM_P2
2023/10/24 12:08:35;;;;;;;6.93;4.35;;;17.10;84.00;;;;;;4777861;29;20091;-68
2023/10/24 12:11:03;;;;;;;7.22;4.32;;;17.20;84.10;;;;;;4918822;29;20047;-67
2023/10/24 12:13:32;;;;;;;8.07;4.20;;;17.20;84.30;;;;;;4918810;29;20024;-68
2023/10/24 12:16:02;;;;;;;6.40;3.92;;;17.20;84.10;;;;;;4919367;29;20429;-69
2023/10/24 12:18:30;;;;;;;5.32;3.85;;;17.30;84.10;;;;;;4918721;29;20028;-69
2023/10/24 12:20:59;;;;;;;5.75;3.53;;;17.30;84.10;;;;;;4919237;29;20032;-68
2023/10/24 12:23:27;;;;;;;6.10;3.38;;;17.40;84.10;;;;;;4918763;29;20043;-68
2023/10/24 12:25:56;;;;;;;4.95;3.60;;;17.40;84.10;;;;;;4919197;29;20035;-68
2023/10/24 12:28:24;;;;;;;7.35;4.38;;;17.40;84.10;;;;;;4919079;29;20402;-69
2023/10/24 12:30:53;;;;;;;10.38;4.75;;;17.40;84.10;;;;;;4918932;29;20082;-69
2023/10/24 12:33:19;;;;;;;8.30;4.53;;;17.50;84.00;;;;;;4918547;29;20342;-68
2023/10/24 12:35:47;;;;;;;5.93;4.00;;;17.50;84.10;;;;;;4917778;29;20080;-68
2023/10/24 12:38:15;;;;;;;5.57;3.92;;;17.50;83.90;;;;;;4920427;29;20127;-68
2023/10/24 12:40:45;;;;;;;5.60;3.40;;;17.60;84.00;;;;;;4922033;29;20080;-68
2023/10/24 12:43:13;;;;;;;5.88;3.53;;;17.60;83.90;;;;;;4921871;29;20075;-68
2023/10/24 12:45:42;;;;;;;5.35;3.70;;;17.70;84.00;;;;;;4922414;29;20407;-68
2023/10/24 12:48:13;;;;;;;6.90;4.43;;;17.70;83.90;;;;;;4921694;29;20083;-68
2023/10/24 12:50:40;;;;;;;6.00;3.85;;;17.80;84.00;;;;;;4922364;29;20024;-68
2023/10/24 12:53:10;;;;;;;3.78;2.95;;;17.70;83.80;;;;;;4921609;29;20024;-68
2023/10/24 12:55:37;;;;;;;4.32;3.40;;;17.80;83.60;;;;;;4922283;29;20064;-68
2023/10/24 12:58:05;;;;;;;3.60;3.05;;;17.80;83.60;;;;;;4921606;29;20031;-68
2023/10/24 13:00:33;;;;;;;7.05;3.40;;;17.70;83.60;;;;;;4922019;29;20020;-69
2023/10/24 13:03:01;;;;;;;5.30;3.35;;;17.80;83.60;;;;;;4921572;29;20028;-69
2023/10/24 13:05:31;;;;;;;6.00;3.45;;;17.80;83.60;;;;;;4921538;29;20040;-69
2023/10/24 13:07:59;;;;;;;5.65;3.72;;;17.80;83.60;;;;;;4920949;29;20488;-68
2023/10/24 13:10:28;;;;;;;5.57;3.30;;;17.80;83.60;;;;;;4922052;29;20028;-68
2023/10/24 13:12:56;;;;;;;5.43;2.88;;;17.80;83.50;;;;;;4921487;29;20024;-69
2023/10/24 13:15:24;;;;;;;6.43;3.25;;;17.80;83.40;;;;;;4921401;29;20051;-69
2023/10/24 13:17:52;;;;;;;6.32;3.10;;;17.80;83.40;;;;;;4921847;29;20036;-68
2023/10/24 13:20:18;;;;;;;8.32;3.30;;;17.80;83.30;;;;;;4921301;29;20035;-69
2023/10/24 13:22:44;;;;;;;5.05;2.92;;;17.80;83.30;;;;;;4921731;29;20362;-68
2023/10/24 13:25:11;;;;;;;7.60;3.58;;;17.80;83.50;;;;;;4921217;29;20039;-69
2023/10/24 13:27:37;;;;;;;7.70;4.28;;;17.80;83.50;;;;;;4921571;29;20432;-69
2023/10/24 13:30:03;;;;;;;6.82;3.65;;;17.80;83.40;;;;;;4921695;29;20099;-68
2023/10/24 13:32:31;;;;;;;6.32;4.00;;;17.80;83.40;;;;;;4921130;29;20075;-68
2023/10/24 13:34:59;;;;;;;7.10;4.03;;;17.80;83.50;;;;;;4921022;29;20060;-69
2023/10/24 13:37:27;;;;;;;6.93;4.05;;;17.80;83.50;;;;;;4920851;29;20056;-68
2023/10/24 13:39:56;;;;;;;7.40;4.28;;;17.80;83.40;;;;;;4920871;29;20374;-68
2023/10/24 13:42:26;;;;;;;10.00;4.25;;;17.80;83.40;;;;;;4920859;29;20111;-68
2023/10/24 13:44:56;;;;;;;5.43;3.75;;;17.80;83.40;;;;;;4920878;29;20027;-67
2023/10/24 13:47:22;;;;;;;7.00;4.82;;;17.70;83.40;;;;;;4920709;29;20032;-69
2023/10/24 13:49:49;;;;;;;11.15;7.03;;;17.80;83.40;;;;;;4921141;29;20020;-68
2023/10/24 13:54:46;;;;;;;10.57;5.82;;;17.70;83.50;;;;;;4921432;29;20047;-67
2023/10/24 13:57:16;;;;;;;9.52;5.60;;;17.70;83.80;;;;;;4920638;29;20142;-68
2023/10/24 13:59:44;;;;;;;10.98;4.93;;;17.70;84.10;;;;;;4920617;29;20024;-68
2023/10/24 14:02:13;;;;;;;8.82;5.72;;;17.70;84.00;;;;;;4920546;29;20044;-68
2023/10/24 14:04:42;;;;;;;7.97;5.30;;;17.70;83.90;;;;;;4920478;29;20067;-68
2023/10/24 14:07:09;;;;;;;7.43;5.10;;;17.70;84.00;;;;;;4919745;29;20068;-68
2023/10/24 14:09:38;;;;;;;7.22;4.80;;;17.70;83.90;;;;;;4920382;29;20044;-68
2023/10/24 14:12:06;;;;;;;8.57;5.32;;;17.80;83.90;;;;;;4920307;29;20028;-68
2023/10/24 14:14:34;;;;;;;6.85;5.03;;;17.80;83.90;;;;;;4920860;29;20116;-68
2023/10/24 14:17:03;;;;;;;8.43;4.95;;;17.80;84.00;;;;;;4920613;29;20100;-68
2023/10/24 14:19:31;;;;;;;8.63;5.30;;;17.80;84.10;;;;;;4920245;29;20469;-68
2023/10/24 14:21:59;;;;;;;7.65;4.80;;;17.80;84.10;;;;;;4920425;29;20039;-69
2023/10/24 14:24:25;;;;;;;9.43;5.63;;;17.80;84.30;;;;;;4919171;29;20381;-68
2023/10/24 14:26:54;;;;;;;9.15;4.60;;;17.80;84.20;;;;;;4920015;29;20062;-68
2023/10/24 14:29:22;;;;;;;7.20;4.63;;;17.80;84.20;;;;;;4919967;29;20032;-69
2023/10/24 14:31:50;;;;;;;6.15;4.60;;;17.80;84.10;;;;;;4919972;29;20450;-69
2023/10/24 14:34:18;;;;;;;9.27;4.88;;;17.80;84.00;;;;;;4919949;29;20036;-69
2023/10/24 14:36:47;;;;;;;10.77;5.07;;;17.80;83.90;;;;;;4920305;29;20105;-67
2023/10/24 14:39:14;;;;;;;7.28;4.63;;;17.80;84.00;;;;;;4918587;29;20370;-68
2023/10/24 14:41:43;;;;;;;8.88;4.20;;;17.80;84.10;;;;;;4919992;29;20028;-70
2023/10/24 14:44:09;;;;;;;6.50;4.30;;;17.80;84.00;;;;;;4917929;29;20107;-70
2023/10/24 14:46:35;;;;;;;8.05;5.00;;;17.80;84.00;;;;;;4918064;29;20040;-70
2023/10/24 14:49:01;;;;;;;7.05;5.10;;;17.80;83.90;;;;;;4917747;29;20032;-68
2023/10/24 14:51:27;;;;;;;9.13;5.35;;;17.70;84.00;;;;;;4917797;29;20024;-70
2023/10/24 14:53:53;;;;;;;9.02;5.72;;;17.80;84.00;;;;;;4917782;29;20031;-69
2023/10/24 14:56:21;;;;;;;8.90;5.15;;;17.80;84.00;;;;;;4917657;29;20450;-68
2023/10/24 14:58:49;;;;;;;23.73;12.90;;;17.80;84.20;;;;;;4918999;29;20529;-68
2023/10/24 15:01:15;;;;;;;13.32;7.53;;;17.80;84.20;;;;;;4919538;29;20036;-68
2023/10/24 15:03:43;;;;;;;11.02;6.13;;;17.70;84.10;;;;;;4919492;29;20040;-68
2023/10/24 15:06:10;;;;;;;11.68;6.00;;;17.70;84.00;;;;;;4919996;29;20334;-68
2023/10/24 15:08:40;;;;;;;9.05;6.35;;;17.80;84.00;;;;;;4918293;29;20064;-67
2023/10/24 15:11:06;;;;;;;10.90;6.68;;;17.70;83.90;;;;;;4919341;29;20047;-68
2023/10/24 15:13:32;;;;;;;10.88;6.60;;;17.80;84.00;;;;;;4919870;29;20066;-68
2023/10/24 15:16:01;;;;;;;11.30;6.05;;;17.80;84.00;;;;;;4919328;29;20056;-68
2023/10/24 15:18:30;;;;;;;11.13;6.45;;;17.80;84.00;;;;;;4919184;29;20055;-67
2023/10/24 15:21:00;;;;;;;10.00;6.00;;;17.80;84.10;;;;;;4919789;29;20032;-68
2023/10/24 15:23:28;;;;;;;10.32;6.40;;;17.80;84.00;;;;;;4919262;29;20383;-68
2023/10/24 15:25:56;;;;;;;12.43;8.32;;;17.70;84.00;;;;;;4919229;29;20468;-68
2023/10/24 15:28:24;;;;;;;12.75;7.55;;;17.80;84.10;;;;;;4919103;29;20509;-68
2023/10/24 15:30:52;;;;;;;15.50;7.78;;;17.80;84.10;;;;;;4919690;29;20099;-67
2023/10/24 15:33:20;;;;;;;12.90;7.65;;;17.80;84.20;;;;;;4919108;29;20056;-68
2023/10/24 15:36:02;;;;;;;11.10;7.25;;;17.80;84.10;;;;;;4919619;29;20402;-68
2023/10/24 15:38:32;;;;;;;15.65;8.80;;;17.80;84.20;;;;;;4919057;29;20032;-68
2023/10/24 15:41:01;;;;;;;15.93;8.95;;;17.80;84.20;;;;;;4919010;29;20024;-68
2023/10/24 15:43:31;;;;;;;14.80;9.68;;;17.80;84.10;;;;;;4919582;29;20084;-67
2023/10/24 15:46:19;;;;;;;16.00;9.68;;;17.80;84.10;;;;;;4919509;29;20038;-68
2023/10/24 15:48:51;;;;;;;15.65;10.07;;;17.80;84.00;;;;;;4918841;29;20070;-68
2023/10/24 15:51:21;;;;;;;16.08;9.93;;;17.80;84.10;;;;;;4918953;29;20040;-67
2023/10/24 15:53:49;;;;;;;14.63;10.50;;;17.80;84.20;;;;;;4918940;29;20446;-68
2023/10/24 15:56:17;;;;;;;14.75;9.75;;;17.80;84.20;;;;;;4919112;29;20084;-68
2023/10/24 15:58:45;;;;;;;12.93;9.02;;;17.80;84.20;;;;;;4918794;29;20044;-68
2023/10/24 16:03:39;;;;;;;13.45;8.55;;;17.80;84.20;;;;;;4919652;29;20123;-68
2023/10/24 16:06:06;;;;;;;14.88;8.27;;;17.80;84.20;;;;;;4918863;29;20509;-68
2023/10/24 16:08:33;;;;;;;12.65;8.68;;;17.80;84.30;;;;;;4918742;29;20076;-69
2023/10/24 16:11:06;;;;;;;13.60;8.43;;;17.70;84.30;;;;;;4919579;29;20115;-67
2023/10/24 16:13:33;;;;;;;12.80;9.15;;;17.80;84.30;;;;;;4921733;29;20028;-67
2023/10/24 16:16:07;;;;;;;17.20;11.80;;;17.80;84.40;;;;;;4922444;29;20533;-67
2023/10/24 16:18:35;;;;;;;20.17;12.85;;;17.80;84.30;;;;;;4922476;29;20055;-68
2023/10/24 16:21:03;;;;;;;16.75;11.80;;;17.80;84.40;;;;;;4922385;29;20032;-68
2023/10/24 16:23:32;;;;;;;13.80;9.68;;;17.80;84.40;;;;;;4922823;29;20054;-67
2023/10/24 16:26:00;;;;;;;13.55;9.32;;;17.80;84.40;;;;;;4922239;29;20345;-68
2023/10/24 16:28:29;;;;;;;12.80;9.00;;;17.70;84.40;;;;;;4922162;29;20028;-68
2023/10/24 16:30:57;;;;;;;13.60;9.00;;;17.70;84.40;;;;;;4922816;29;20028;-67
2023/10/24 16:33:25;;;;;;;12.98;8.80;;;17.70;84.40;;;;;;4922040;29;20024;-68
2023/10/24 16:35:51;;;;;;;15.98;8.75;;;17.70;84.40;;;;;;4922381;29;20039;-69
2023/10/24 16:38:17;;;;;;;14.82;9.60;;;17.70;84.50;;;;;;4922017;29;20111;-69
2023/10/24 16:40:44;;;;;;;13.00;8.77;;;17.70;84.50;;;;;;4922061;29;20039;-68
2023/10/24 16:43:10;;;;;;;12.73;8.68;;;17.80;84.50;;;;;;4921789;29;20028;-68
2023/10/24 16:45:38;;;;;;;6.97;4.03;;;17.70;84.50;;;;;;4921866;29;20040;-67
2023/10/24 16:48:05;;;;;;;10.02;5.80;;;17.70;84.30;;;;;;4921534;29;20024;-66
2023/10/24 16:50:36;;;;;;;15.88;10.13;;;17.70;84.00;;;;;;4921769;29;20024;-70
2023/10/24 16:53:04;;;;;;;18.00;11.15;;;17.80;84.10;;;;;;4922015;29;20036;-66
2023/10/24 16:55:37;;;;;;;15.13;10.50;;;17.90;84.20;;;;;;4937026;29;20024;-66
2023/10/24 16:58:04;;;;;;;18.08;10.30;;;17.90;84.40;;;;;;4940216;29;20357;-69
2023/10/24 17:00:30;;;;;;;19.95;10.20;;;17.90;84.60;;;;;;4939632;29;20046;-74
2023/10/24 17:02:56;;;;;;;15.82;10.55;;;18.00;84.50;;;;;;4940468;29;20375;-68
2023/10/24 17:05:22;;;;;;;17.83;11.30;;;18.20;84.50;;;;;;4940252;29;20028;-65
2023/10/24 17:07:48;;;;;;;15.25;9.60;;;18.20;84.20;;;;;;4939896;29;20544;-75
2023/10/24 17:10:14;;;;;;;16.83;11.02;;;18.20;84.00;;;;;;4940254;29;20074;-72
2023/10/24 17:12:40;;;;;;;15.82;11.48;;;18.20;83.80;;;;;;4940216;29;20067;-74
2023/10/24 17:15:07;;;;;;;15.88;11.52;;;18.20;83.70;;;;;;4940442;29;20024;-73
2023/10/24 17:17:39;;;;;;;15.70;11.45;;;18.10;83.60;;;;;;4940149;29;20107;-63
2023/10/24 17:20:06;;;;;;;18.25;11.68;;;18.00;83.60;;;;;;4940233;29;20024;-64
2023/10/24 17:22:32;;;;;;;16.08;11.10;;;18.00;83.70;;;;;;4940311;29;20039;-64
2023/10/24 17:24:59;;;;;;;16.70;11.18;;;17.90;83.70;;;;;;4939708;29;20457;-66
2023/10/24 17:27:27;;;;;;;15.55;10.73;;;17.90;83.70;;;;;;4940554;29;20028;-65
2023/10/24 17:29:53;;;;;;;17.38;10.82;;;17.80;83.80;;;;;;4929437;29;20091;-66
2023/10/24 17:32:53;;;;;;;16.77;11.30;;;17.80;83.80;;;;;;4921097;29;20020;-65
2023/10/24 17:35:41;;;;;;;15.63;11.02;;;17.70;83.90;;;;;;4910507;29;20060;-71
2023/10/24 17:38:07;;;;;;;15.20;11.15;;;17.70;83.90;;;;;;4921012;29;20048;-62
2023/10/24 17:40:40;;;;;;;19.60;12.05;;;17.60;84.00;;;;;;4920763;29;20032;-69
2023/10/24 17:43:09;;;;;;;17.08;12.48;;;17.60;84.00;;;;;;4920886;29;20413;-71
2023/10/24 17:45:40;;;;;;;19.38;12.10;;;17.50;84.00;;;;;;4921012;29;20032;-63
2023/10/24 17:48:06;;;;;;;18.70;12.77;;;17.50;84.10;;;;;;5217177;23;20384;-60
2023/10/24 17:50:37;;;;;;;16.02;11.60;;;17.50;84.10;;;;;;4939700;29;20031;-60
2023/10/24 17:53:05;;;;;;;17.52;12.40;;;17.40;84.10;;;;;;4939810;29;20094;-60
2023/10/24 17:55:35;;;;;;;18.42;12.07;;;17.40;84.20;;;;;;4939492;29;20024;-61
2023/10/24 18:00:33;;;;;;;18.35;12.30;;;17.40;84.20;;;;;;4912272;29;20149;-66
2023/10/24 18:03:00;;;;;;;18.17;12.45;;;17.40;84.20;;;;;;4920435;29;20385;-66
2023/10/24 18:05:26;;;;;;;18.52;12.68;;;17.30;84.20;;;;;;4919165;29;20031;-65
2023/10/24 18:07:59;;;;;;;17.98;12.25;;;17.30;84.30;;;;;;4919419;29;20028;-67
2023/10/24 18:10:29;;;;;;;18.67;12.55;;;17.40;84.30;;;;;;4900101;29;20028;-60
2023/10/24 18:12:58;;;;;;;17.50;12.10;;;17.30;84.30;;;;;;4901282;29;20056;-60
2023/10/24 18:15:25;;;;;;;19.27;12.05;;;17.30;84.30;;;;;;4901134;29;20033;-60
2023/10/24 18:17:54;;;;;;;19.10;12.68;;;17.30;84.40;;;;;;4901321;29;20464;-59
2023/10/24 18:20:20;;;;;;;16.50;11.88;;;17.30;84.50;;;;;;4901439;29;20080;-60
2023/10/24 18:22:56;;;;;;;19.52;11.60;;;17.30;84.40;;;;;;4901823;29;20036;-60
2023/10/24 18:25:25;;;;;;;19.15;13.25;;;17.20;84.40;;;;;;4901131;29;20067;-61
2023/10/24 18:27:54;;;;;;;17.92;12.32;;;17.30;84.40;;;;;;4901633;29;20150;-60
2023/10/24 18:30:22;;;;;;;19.13;12.80;;;17.20;84.40;;;;;;4901058;29;20384;-61
2023/10/24 18:32:51;;;;;;;18.65;13.07;;;17.20;84.40;;;;;;4901037;29;20048;-60
2023/10/24 18:35:19;;;;;;;17.95;12.55;;;17.20;84.40;;;;;;4900247;29;20491;-59
2023/10/24 18:37:45;;;;;;;13.60;9.05;;;17.20;84.40;;;;;;4901020;29;20032;-65
2023/10/24 18:40:12;;;;;;;24.23;14.13;;;17.20;84.60;;;;;;4899631;29;20402;-65
2023/10/24 18:42:39;;;;;;;27.85;16.33;;;17.30;84.90;;;;;;4900654;29;20036;-59
2023/10/24 18:45:05;;;;;;;152.18;37.60;;;17.30;84.80;;;;;;4900610;29;20028;-63
2023/10/24 18:47:32;;;;;;;25.60;16.77;;;17.30;84.70;;;;;;4900291;29;20035;-59
2023/10/24 18:49:58;;;;;;;52.95;34.55;;;17.40;84.80;;;;;;4900528;29;20109;-65
2023/10/24 18:52:24;;;;;;;57.33;34.97;;;17.40;85.00;;;;;;4900752;29;20084;-64
2023/10/24 18:54:50;;;;;;;29.45;18.75;;;17.40;84.80;;;;;;4900904;29;20021;-65
2023/10/24 18:57:16;;;;;;;27.00;17.55;;;17.50;85.00;;;;;;4900851;29;20052;-64
2023/10/24 18:59:43;;;;;;;26.92;17.55;;;17.50;85.20;;;;;;4900427;29;20057;-62
2023/10/24 19:02:09;;;;;;;29.08;17.58;;;17.60;85.00;;;;;;4900538;29;20164;-65
2023/10/24 19:05:26;;;;;;;23.17;16.15;;;17.60;85.10;;;;;;4900851;29;20115;-65
2023/10/24 19:07:52;;;;;;;28.83;16.23;;;17.60;84.70;;;;;;4900411;29;20035;-66
2023/10/24 19:10:19;;;;;;;27.15;16.33;;;17.60;84.70;;;;;;4900194;29;20047;-65
2023/10/24 19:12:45;;;;;;;27.55;15.90;;;17.60;84.60;;;;;;4900120;29;20044;-65
2023/10/24 19:15:11;;;;;;;24.75;15.88;;;17.50;84.60;;;;;;4915243;29;20028;-65
2023/10/24 19:18:20;;;;;;;24.90;15.25;;;17.50;84.50;;;;;;4890521;29;20032;-64
2023/10/24 19:21:29;;;;;;;25.92;14.98;;;17.50;84.40;;;;;;4881347;29;20059;-65
2023/10/24 19:23:55;;;;;;;25.85;13.68;;;17.50;84.40;;;;;;4881430;29;20045;-65
2023/10/24 19:26:22;;;;;;;24.83;14.00;;;17.40;84.40;;;;;;4881360;29;20025;-64
2023/10/24 19:28:48;;;;;;;27.77;15.80;;;17.40;84.40;;;;;;4881126;29;20028;-65
2023/10/24 19:31:17;;;;;;;24.92;15.32;;;17.40;84.40;;;;;;4881129;29;20035;-64
2023/10/24 19:33:43;;;;;;;24.05;14.48;;;17.40;84.40;;;;;;4881300;29;20494;-64
2023/10/24 19:36:13;;;;;;;23.95;14.88;;;17.40;84.50;;;;;;4881314;29;20029;-65
2023/10/24 19:38:42;;;;;;;24.40;14.50;;;17.40;84.40;;;;;;4881530;29;20207;-64
2023/10/24 19:41:09;;;;;;;20.10;12.98;;;17.40;84.40;;;;;;4881199;29;20029;-64
2023/10/24 19:43:35;;;;;;;22.05;14.20;;;17.40;84.40;;;;;;4881166;29;20057;-64
2023/10/24 19:46:08;;;;;;;23.27;14.35;;;17.40;84.40;;;;;;4881026;29;20424;-64
2023/10/24 19:48:39;;;;;;;23.70;14.82;;;17.30;84.30;;;;;;4899519;29;20021;-65
2023/10/24 19:51:06;;;;;;;22.10;13.73;;;17.40;84.30;;;;;;4884952;29;20127;-65
2023/10/24 19:53:33;;;;;;;23.45;14.23;;;17.40;84.30;;;;;;4884988;29;20036;-64
2023/10/24 19:56:00;;;;;;;21.42;12.85;;;17.40;84.30;;;;;;4899926;29;20025;-64
2023/10/24 19:58:32;;;;;;;21.42;13.07;;;17.40;84.30;;;;;;4902393;29;20067;-64
2023/10/24 20:01:00;;;;;;;23.92;13.18;;;17.40;84.30;;;;;;4903634;29;20060;-64
2023/10/24 20:03:27;;;;;;;24.25;13.35;;;17.40;84.30;;;;;;4903614;29;20028;-64
2023/10/24 20:05:56;;;;;;;21.13;12.23;;;17.40;84.20;;;;;;4903522;29;20041;-64
2023/10/24 20:08:23;;;;;;;20.05;12.32;;;17.40;84.20;;;;;;4898935;29;20095;-65
2023/10/24 20:10:49;;;;;;;23.20;12.95;;;17.30;84.30;;;;;;4903361;29;20033;-65
2023/10/24 20:13:15;;;;;;;24.98;13.70;;;17.30;84.30;;;;;;4903627;29;20476;-64
2023/10/24 20:15:42;;;;;;;23.42;12.80;;;17.30;84.40;;;;;;4903414;29;20028;-64
2023/10/24 20:18:13;;;;;;;21.40;11.85;;;17.30;84.30;;;;;;4902185;29;20043;-64
2023/10/24 20:20:39;;;;;;;23.52;13.10;;;17.30;84.30;;;;;;4883478;29;20361;-65
2023/10/24 20:23:06;;;;;;;28.10;14.15;;;17.30;84.40;;;;;;4903298;29;20032;-64
2023/10/24 20:25:32;;;;;;;24.25;13.23;;;17.30;84.40;;;;;;4886684;29;20036;-64
2023/10/24 20:27:58;;;;;;;26.02;13.82;;;17.30;84.40;;;;;;4903031;29;20119;-64
2023/10/24 20:30:24;;;;;;;21.73;12.90;;;17.30;84.40;;;;;;4902708;29;20065;-64
2023/10/24 20:32:51;;;;;;;22.67;13.07;;;17.30;84.40;;;;;;4903056;29;20071;-64
2023/10/24 20:35:26;;;;;;;26.58;13.38;;;17.30;84.30;;;;;;4903211;29;20075;-64
2023/10/24 20:37:56;;;;;;;21.52;13.07;;;17.20;84.30;;;;;;4903149;29;20033;-64
2023/10/24 20:41:10;;;;;;;21.30;12.20;;;17.20;84.30;;;;;;4902427;29;20050;-64
2023/10/24 20:43:38;;;;;;;25.38;12.63;;;17.20;84.30;;;;;;4866295;29;20041;-64
2023/10/24 20:46:07;;;;;;;25.05;12.48;;;17.30;84.40;;;;;;4882458;29;20491;-64
2023/10/24 20:48:35;;;;;;;25.95;13.07;;;17.20;84.40;;;;;;4882355;29;20069;-64
2023/10/24 20:51:01;;;;;;;24.05;13.70;;;17.30;84.40;;;;;;4882487;29;20033;-65
2023/10/24 20:53:27;;;;;;;20.20;11.48;;;17.30;84.70;;;;;;4866614;29;20037;-65
2023/10/24 20:55:57;;;;;;;23.00;12.50;;;17.30;84.50;;;;;;4881822;29;20092;-65
2023/10/24 20:58:23;;;;;;;25.23;13.13;;;17.30;84.70;;;;;;4880394;29;20057;-65
2023/10/24 21:00:50;;;;;;;25.00;13.30;;;17.30;84.70;;;;;;4878014;29;20044;-65
2023/10/24 21:03:16;;;;;;;24.13;12.23;;;17.30;84.90;;;;;;4864039;29;20453;-65
2023/10/24 21:05:43;;;;;;;25.42;12.82;;;17.30;84.80;;;;;;4879634;29;20159;-65
2023/10/24 21:08:10;;;;;;;24.00;12.00;;;17.30;84.80;;;;;;4864165;29;20121;-66
2023/10/24 21:10:36;;;;;;;26.27;12.30;;;17.30;84.80;;;;;;4879847;29;20040;-65
2023/10/24 21:13:01;;;;;;;21.00;11.68;;;17.30;84.90;;;;;;4879813;29;20033;-65
2023/10/24 21:15:27;;;;;;;20.25;10.60;;;17.30;84.90;;;;;;4879801;29;20033;-66
2023/10/24 21:17:56;;;;;;;20.30;11.27;;;17.20;85.30;;;;;;4880913;29;20121;-66
2023/10/24 21:20:22;;;;;;;19.58;10.98;;;17.40;85.30;;;;;;4892909;29;20136;-65
2023/10/24 21:22:50;;;;;;;22.02;10.82;;;17.30;85.00;;;;;;4902452;29;20032;-65
2023/10/24 21:25:17;;;;;;;18.95;10.68;;;17.30;84.90;;;;;;4902660;29;20114;-66
2023/10/24 21:32:34;;;;;;;23.85;11.88;;;17.30;85.20;;;;;;4902875;29;20395;-66
2023/10/24 21:35:00;;;;;;;22.90;12.05;;;17.20;85.10;;;;;;4901689;29;20028;-65
2023/10/24 21:37:27;;;;;;;23.15;11.93;;;17.20;85.00;;;;;;4901327;29;20024;-66
2023/10/24 21:39:53;;;;;;;25.40;11.77;;;17.20;85.30;;;;;;4902107;29;20112;-66
2023/10/24 21:42:19;;;;;;;23.25;10.90;;;17.20;85.20;;;;;;4902395;29;20115;-65
2023/10/24 21:44:48;;;;;;;20.95;11.45;;;17.20;85.00;;;;;;4901132;29;20028;-65
2023/10/24 21:47:14;;;;;;;19.30;9.55;;;17.10;84.80;;;;;;4901123;29;20361;-65
2023/10/24 21:49:42;;;;;;;21.73;10.73;;;17.10;84.80;;;;;;4900935;29;20034;-65
2023/10/24 21:52:08;;;;;;;19.70;10.05;;;17.10;84.70;;;;;;4901832;29;20353;-66
2023/10/24 21:54:36;;;;;;;21.23;10.15;;;17.10;84.60;;;;;;4902424;29;20513;-65
2023/10/24 21:57:02;;;;;;;24.00;11.30;;;17.10;84.50;;;;;;4901867;29;20046;-65
2023/10/24 22:01:57;;;;;;;21.48;10.50;;;17.00;84.40;;;;;;4902322;29;20048;-66
2023/10/24 22:04:23;;;;;;;19.35;10.50;;;17.00;84.40;;;;;;4901963;29;20063;-65
2023/10/24 22:06:51;;;;;;;20.23;10.85;;;17.00;84.50;;;;;;4900728;29;20454;-66
2023/10/24 22:09:17;;;;;;;18.52;9.52;;;17.00;84.50;;;;;;4901435;29;20040;-65
2023/10/24 22:11:48;;;;;;;18.55;9.68;;;17.00;84.40;;;;;;4901528;29;20029;-66
2023/10/24 22:14:14;;;;;;;19.55;9.93;;;16.90;84.30;;;;;;4902053;29;20461;-65
2023/10/24 22:16:39;;;;;;;18.20;9.52;;;16.90;84.30;;;;;;4901476;29;20028;-65
2023/10/24 22:19:05;;;;;;;17.95;9.65;;;16.90;84.30;;;;;;4901390;29;20028;-65
2023/10/24 22:21:32;;;;;;;20.38;10.13;;;16.90;84.20;;;;;;4901364;29;20043;-65
2023/10/24 22:24:00;;;;;;;20.15;10.68;;;16.90;84.20;;;;;;4901348;29;20025;-65
2023/10/24 22:26:26;;;;;;;19.85;10.88;;;16.90;84.10;;;;;;4901834;29;20036;-65
2023/10/24 22:28:52;;;;;;;20.55;11.18;;;16.90;84.20;;;;;;4901652;29;20028;-65
2023/10/24 22:31:18;;;;;;;23.50;11.52;;;16.90;84.20;;;;;;4901711;29;20457;-65
2023/10/24 22:33:44;;;;;;;18.77;10.38;;;16.80;84.20;;;;;;4900583;29;20017;-65
2023/10/24 22:36:10;;;;;;;18.60;9.95;;;16.80;84.20;;;;;;4901140;29;20020;-65
2023/10/24 22:38:36;;;;;;;18.98;10.23;;;16.80;84.10;;;;;;4900973;29;20032;-65
2023/10/24 22:41:01;;;;;;;20.08;11.30;;;16.80;84.10;;;;;;4901577;29;20107;-65
2023/10/24 22:43:28;;;;;;;17.92;9.77;;;16.80;84.00;;;;;;4901011;29;20085;-65
2023/10/24 22:45:53;;;;;;;18.95;10.52;;;16.70;84.00;;;;;;4901206;29;20084;-65
2023/10/24 22:48:24;;;;;;;21.67;10.90;;;16.70;83.90;;;;;;4901005;29;20024;-65
2023/10/24 22:50:54;;;;;;;19.67;10.38;;;16.70;83.90;;;;;;4900849;29;20029;-65
2023/10/24 22:53:23;;;;;;;18.20;10.25;;;16.60;83.90;;;;;;4900864;29;20027;-66
2023/10/24 22:55:49;;;;;;;16.73;10.02;;;16.60;83.90;;;;;;4901348;29;20347;-65
2023/10/24 22:58:16;;;;;;;17.95;9.90;;;16.60;83.90;;;;;;4900697;29;20033;-65
2023/10/24 23:00:41;;;;;;;20.10;11.02;;;16.60;83.90;;;;;;4900093;29;20049;-65
2023/10/24 23:03:09;;;;;;;16.60;9.88;;;16.50;83.90;;;;;;4900689;29;20053;-65
2023/10/24 23:05:44;;;;;;;17.05;10.07;;;16.50;83.90;;;;;;4900670;29;20174;-65
2023/10/24 23:08:13;;;;;;;20.88;10.50;;;16.60;83.90;;;;;;4901021;29;20028;-65
2023/10/24 23:10:43;;;;;;;19.80;11.35;;;16.50;84.00;;;;;;4901130;29;20052;-65
2023/10/24 23:13:09;;;;;;;21.65;11.15;;;16.50;84.00;;;;;;4901048;29;20020;-65
2023/10/24 23:15:38;;;;;;;21.02;11.43;;;16.50;84.10;;;;;;4900747;29;20029;-65
2023/10/24 23:18:04;;;;;;;26.35;14.15;;;16.50;84.10;;;;;;4899765;29;20036;-65
2023/10/24 23:20:30;;;;;;;21.65;12.20;;;16.50;84.40;;;;;;4900388;29;20358;-65
2023/10/24 23:22:56;;;;;;;23.67;12.40;;;16.50;84.40;;;;;;4899061;29;20071;-65
2023/10/24 23:25:24;;;;;;;23.00;12.95;;;16.40;84.30;;;;;;4900408;29;20060;-65
2023/10/24 23:27:50;;;;;;;20.73;11.82;;;16.50;84.50;;;;;;4900314;29;20046;-64
2023/10/24 23:30:18;;;;;;;21.75;11.93;;;16.50;84.30;;;;;;4900211;29;20382;-65
2023/10/24 23:32:43;;;;;;;20.52;10.80;;;16.50;84.20;;;;;;4900317;29;20060;-65
2023/10/24 23:35:11;;;;;;;20.60;11.60;;;16.40;84.10;;;;;;4900286;29;20457;-65
2023/10/24 23:37:37;;;;;;;21.90;12.02;;;16.40;84.10;;;;;;4900800;29;20024;-65
2023/10/24 23:40:03;;;;;;;20.10;11.48;;;16.50;84.00;;;;;;4900226;29;20028;-64
2023/10/24 23:42:32;;;;;;;23.67;12.75;;;16.40;84.00;;;;;;4900507;29;20036;-64
2023/10/24 23:44:58;;;;;;;24.27;12.80;;;16.40;84.00;;;;;;4900248;29;20036;-64
2023/10/24 23:47:24;;;;;;;21.35;11.70;;;16.40;84.10;;;;;;4900460;29;20029;-64
2023/10/24 23:50:02;;;;;;;19.90;11.00;;;16.40;84.10;;;;;;4899978;29;20374;-65
2023/10/24 23:52:28;;;;;;;22.27;12.55;;;16.40;84.10;;;;;;4900732;29;20039;-64
2023/10/24 23:57:20;;;;;;;23.50;13.65;;;16.40;84.00;;;;;;4900881;29;20435;-65
2023/10/24 23:59:55;;;;;;;20.90;12.00;;;16.40;84.00;;;;;;4899827;29;20143;-65
